createdAt,value
2022-08-10T00:01:34.000Z,995.75
2022-08-10T00:06:28.000Z,995.74
2022-08-10T00:11:23.000Z,995.72
2022-08-10T00:16:18.000Z,995.68
2022-08-10T00:21:12.000Z,995.70
2022-08-10T00:26:07.000Z,995.62
2022-08-10T00:31:02.000Z,995.59
2022-08-10T00:35:56.000Z,995.68
2022-08-10T00:40:51.000Z,995.61
2022-08-10T00:45:46.000Z,995.57
2022-08-10T00:50:41.000Z,995.52
2022-08-10T00:55:35.000Z,995.59
2022-08-10T01:00:28.000Z,995.58
2022-08-10T01:05:22.000Z,995.50
2022-08-10T01:10:16.000Z,995.51
2022-08-10T01:15:11.000Z,995.45
2022-08-10T01:20:06.000Z,995.55
2022-08-10T01:25:01.000Z,995.42
2022-08-10T01:29:55.000Z,995.46
2022-08-10T01:34:51.000Z,995.36
2022-08-10T01:39:44.000Z,995.51
2022-08-10T01:44:39.000Z,995.42
2022-08-10T01:49:33.000Z,995.49
2022-08-10T01:54:27.000Z,995.49
2022-08-10T01:59:21.000Z,995.51
2022-08-10T02:04:15.000Z,995.51
2022-08-10T02:09:09.000Z,995.36
2022-08-10T02:14:03.000Z,995.43
2022-08-10T02:18:57.000Z,995.43
2022-08-10T02:23:52.000Z,995.48
2022-08-10T02:28:46.000Z,995.46
2022-08-10T02:33:40.000Z,995.61
2022-08-10T02:38:34.000Z,995.59
2022-08-10T02:43:29.000Z,995.54
2022-08-10T02:48:23.000Z,995.46
2022-08-10T02:53:18.000Z,995.41
2022-08-10T02:58:13.000Z,995.47
2022-08-10T03:03:07.000Z,995.49
2022-08-10T03:08:02.000Z,995.62
2022-08-10T03:12:56.000Z,995.58
2022-08-10T03:17:51.000Z,995.49
2022-08-10T03:22:44.000Z,995.55
2022-08-10T03:27:39.000Z,995.59
2022-08-10T03:32:33.000Z,995.59
2022-08-10T03:37:28.000Z,995.61
2022-08-10T03:42:23.000Z,995.57
2022-08-10T03:47:17.000Z,995.54
2022-08-10T03:52:12.000Z,995.60
2022-08-10T03:57:06.000Z,995.58
2022-08-10T04:02:00.000Z,995.73
2022-08-10T04:06:54.000Z,995.62
2022-08-10T04:11:49.000Z,995.75
2022-08-10T04:16:44.000Z,995.76
2022-08-10T04:21:38.000Z,995.67
2022-08-10T04:26:33.000Z,995.73
2022-08-10T04:31:27.000Z,995.77
2022-08-10T04:36:22.000Z,995.73
2022-08-10T04:41:16.000Z,995.78
2022-08-10T04:46:11.000Z,995.77
2022-08-10T04:51:06.000Z,995.72
2022-08-10T04:56:00.000Z,995.84
2022-08-10T05:00:54.000Z,995.80
2022-08-10T05:05:48.000Z,995.72
2022-08-10T05:10:43.000Z,995.81
2022-08-10T05:15:37.000Z,995.91
2022-08-10T05:20:31.000Z,995.83
2022-08-10T05:25:26.000Z,995.87
2022-08-10T05:30:21.000Z,995.82
2022-08-10T05:35:15.000Z,995.84
2022-08-10T05:40:10.000Z,995.83
2022-08-10T05:45:03.000Z,995.82
2022-08-10T05:49:57.000Z,995.93
2022-08-10T05:54:52.000Z,995.94
2022-08-10T05:59:47.000Z,995.90
2022-08-10T06:04:42.000Z,995.91
2022-08-10T06:09:35.000Z,995.88
2022-08-10T06:14:30.000Z,995.97
2022-08-10T06:19:24.000Z,995.94
2022-08-10T06:24:18.000Z,996.05
2022-08-10T06:29:13.000Z,996.04
2022-08-10T06:34:07.000Z,996.02
2022-08-10T06:39:01.000Z,996.05
2022-08-10T06:43:55.000Z,996.06
2022-08-10T06:48:49.000Z,996.10
2022-08-10T06:53:44.000Z,996.14
2022-08-10T06:58:39.000Z,996.14
2022-08-10T07:03:33.000Z,996.17
2022-08-10T07:08:28.000Z,996.20
2022-08-10T07:13:23.000Z,996.29
2022-08-10T07:18:17.000Z,996.24
2022-08-10T07:23:12.000Z,996.23
2022-08-10T07:28:07.000Z,996.19
2022-08-10T07:33:02.000Z,996.22
2022-08-10T07:37:56.000Z,996.26
2022-08-10T07:42:51.000Z,996.32
2022-08-10T07:47:43.000Z,996.28
2022-08-10T07:52:36.000Z,996.40
2022-08-10T07:57:31.000Z,996.40
2022-08-10T08:02:25.000Z,996.48
2022-08-10T08:07:19.000Z,996.40
2022-08-10T08:12:14.000Z,996.43
2022-08-10T08:17:08.000Z,996.45
2022-08-10T08:22:03.000Z,996.47
2022-08-10T08:26:57.000Z,996.44
2022-08-10T08:31:52.000Z,996.42
2022-08-10T08:36:47.000Z,996.36
2022-08-10T08:41:42.000Z,996.38
2022-08-10T08:46:36.000Z,996.30
2022-08-10T08:51:30.000Z,996.30
2022-08-10T08:56:25.000Z,996.34
2022-08-10T09:01:20.000Z,996.21
2022-08-10T09:06:15.000Z,996.28
2022-08-10T09:11:08.000Z,996.26
2022-08-10T09:16:03.000Z,996.25
2022-08-10T09:20:57.000Z,996.18
2022-08-10T09:25:52.000Z,996.18
2022-08-10T09:30:45.000Z,996.23
2022-08-10T09:35:40.000Z,996.23
2022-08-10T09:40:35.000Z,996.21
2022-08-10T09:45:29.000Z,996.16
2022-08-10T09:50:24.000Z,996.15
2022-08-10T09:55:20.000Z,996.16
2022-08-10T10:00:18.000Z,996.12
2022-08-10T10:05:13.000Z,996.11
2022-08-10T10:10:09.000Z,996.12
2022-08-10T10:15:04.000Z,996.07
2022-08-10T10:19:59.000Z,995.92
2022-08-10T10:24:53.000Z,995.92
2022-08-10T10:29:48.000Z,995.85
2022-08-10T10:34:44.000Z,995.78
2022-08-10T10:39:37.000Z,995.82
2022-08-10T10:44:32.000Z,995.71
2022-08-10T10:49:26.000Z,995.61
2022-08-10T10:54:22.000Z,995.54
2022-08-10T10:59:17.000Z,995.59
2022-08-10T11:04:11.000Z,995.41
2022-08-10T11:09:06.000Z,995.49
2022-08-10T11:14:01.000Z,995.40
2022-08-10T11:18:56.000Z,995.34
2022-08-10T11:23:50.000Z,995.34
2022-08-10T11:28:45.000Z,995.31
2022-08-10T11:33:41.000Z,995.34
2022-08-10T11:38:35.000Z,995.23
2022-08-10T11:43:28.000Z,995.16
2022-08-10T11:48:22.000Z,995.24
2022-08-10T11:53:18.000Z,995.15
2022-08-10T11:58:13.000Z,995.18
2022-08-10T12:03:08.000Z,995.09
2022-08-10T12:08:03.000Z,994.92
2022-08-10T12:12:58.000Z,994.96
2022-08-10T12:17:53.000Z,994.79
2022-08-10T12:22:47.000Z,994.84
2022-08-10T12:27:43.000Z,994.85
2022-08-10T12:32:37.000Z,994.86
2022-08-10T12:37:31.000Z,994.80
2022-08-10T12:42:26.000Z,994.70
2022-08-10T12:47:20.000Z,994.69
2022-08-10T12:52:15.000Z,994.58
2022-08-10T12:57:10.000Z,994.45
2022-08-10T13:02:05.000Z,994.39
2022-08-10T13:06:59.000Z,994.45
2022-08-10T13:11:54.000Z,994.43
2022-08-10T13:16:49.000Z,994.28
2022-08-10T13:21:45.000Z,994.32
2022-08-10T13:26:39.000Z,994.22
2022-08-10T13:31:34.000Z,994.04
2022-08-10T13:36:28.000Z,994.03
2022-08-10T13:41:22.000Z,994.07
2022-08-10T13:46:17.000Z,993.91
2022-08-10T13:51:09.000Z,993.85
2022-08-10T13:56:04.000Z,993.80
2022-08-10T14:00:59.000Z,993.87
2022-08-10T14:05:53.000Z,993.78
2022-08-10T14:10:48.000Z,993.74
2022-08-10T14:15:43.000Z,993.72
2022-08-10T14:20:38.000Z,993.75
2022-08-10T14:25:32.000Z,993.60
2022-08-10T14:30:27.000Z,993.57
2022-08-10T14:35:21.000Z,993.65
2022-08-10T14:40:15.000Z,993.53
2022-08-10T14:45:10.000Z,993.46
2022-08-10T14:50:05.000Z,993.43
2022-08-10T14:54:59.000Z,993.42
2022-08-10T14:59:53.000Z,993.42
2022-08-10T15:04:48.000Z,993.46
2022-08-10T15:09:43.000Z,993.47
2022-08-10T15:14:37.000Z,993.39
2022-08-10T15:19:32.000Z,993.28
2022-08-10T15:24:27.000Z,993.27
2022-08-10T15:29:22.000Z,993.30
2022-08-10T15:34:16.000Z,993.12
2022-08-10T15:39:11.000Z,993.14
2022-08-10T15:44:05.000Z,993.07
2022-08-10T15:49:00.000Z,993.09
2022-08-10T15:53:56.000Z,993.02
2022-08-10T15:58:51.000Z,992.95
2022-08-10T16:03:46.000Z,992.96
2022-08-10T16:08:40.000Z,992.99
2022-08-10T16:13:35.000Z,992.90
2022-08-10T16:18:29.000Z,992.93
2022-08-10T16:23:24.000Z,992.80
2022-08-10T16:28:18.000Z,992.89
2022-08-10T16:33:11.000Z,992.85
2022-08-10T16:38:06.000Z,992.87
2022-08-10T16:42:59.000Z,992.81
2022-08-10T16:47:54.000Z,992.80
2022-08-10T16:52:48.000Z,992.72
2022-08-10T16:57:43.000Z,992.70
2022-08-10T17:02:38.000Z,992.72
2022-08-10T17:07:30.000Z,992.73
2022-08-10T17:12:25.000Z,992.68
2022-08-10T17:17:19.000Z,992.74
2022-08-10T17:22:14.000Z,992.68
2022-08-10T17:27:09.000Z,992.60
2022-08-10T17:32:01.000Z,992.65
2022-08-10T17:36:55.000Z,992.58
2022-08-10T17:41:50.000Z,992.58
2022-08-10T17:46:45.000Z,992.59
2022-08-10T17:51:39.000Z,992.59
2022-08-10T17:56:33.000Z,992.55
2022-08-10T18:01:28.000Z,992.54
2022-08-10T18:06:22.000Z,992.52
2022-08-10T18:11:15.000Z,992.54
2022-08-10T18:16:10.000Z,992.57
2022-08-10T18:21:04.000Z,992.61
2022-08-10T18:25:58.000Z,992.61
2022-08-10T18:30:52.000Z,992.62
2022-08-10T18:35:46.000Z,992.71
2022-08-10T18:40:40.000Z,992.70
2022-08-10T18:45:34.000Z,992.78
2022-08-10T18:50:29.000Z,992.79
2022-08-10T18:55:23.000Z,992.73
2022-08-10T19:00:18.000Z,992.76
2022-08-10T19:05:12.000Z,992.92
2022-08-10T19:10:06.000Z,992.90
2022-08-10T19:15:01.000Z,992.88
2022-08-10T19:19:55.000Z,992.90
2022-08-10T19:24:48.000Z,992.90
2022-08-10T19:29:43.000Z,992.97
2022-08-10T19:34:38.000Z,992.91
2022-08-10T19:39:32.000Z,992.92
2022-08-10T19:44:27.000Z,993.01
2022-08-10T19:49:22.000Z,993.07
2022-08-10T19:54:17.000Z,993.00
2022-08-10T19:59:11.000Z,992.99
2022-08-10T20:04:05.000Z,993.01
2022-08-10T20:08:59.000Z,993.02
2022-08-10T20:13:53.000Z,993.07
2022-08-10T20:18:46.000Z,993.08
2022-08-10T20:23:40.000Z,993.06
2022-08-10T20:28:34.000Z,993.10
2022-08-10T20:33:28.000Z,993.14
2022-08-10T20:38:23.000Z,993.10
2022-08-10T20:43:17.000Z,993.12
2022-08-10T20:48:10.000Z,993.23
2022-08-10T20:53:05.000Z,993.29
2022-08-10T20:58:00.000Z,993.22
2022-08-10T21:02:54.000Z,993.18
2022-08-10T21:07:48.000Z,993.18
2022-08-10T21:12:42.000Z,993.17
2022-08-10T21:17:36.000Z,993.15
2022-08-10T21:22:30.000Z,993.08
2022-08-10T21:27:25.000Z,993.08
2022-08-10T21:32:19.000Z,993.09
2022-08-10T21:37:13.000Z,993.06
2022-08-10T21:42:07.000Z,993.07
2022-08-10T21:47:02.000Z,993.11
2022-08-10T21:51:57.000Z,992.93
2022-08-10T21:56:51.000Z,992.85
2022-08-10T22:01:43.000Z,992.88
2022-08-10T22:06:38.000Z,992.82
2022-08-10T22:11:32.000Z,992.78
2022-08-10T22:16:27.000Z,992.83
2022-08-10T22:21:22.000Z,992.82
2022-08-10T22:26:16.000Z,992.81
2022-08-10T22:31:11.000Z,992.76
2022-08-10T22:36:06.000Z,992.82
2022-08-10T22:41:01.000Z,992.76
2022-08-10T22:45:55.000Z,992.84
2022-08-10T22:50:49.000Z,992.75
2022-08-10T22:55:44.000Z,992.64
2022-08-10T23:00:38.000Z,992.67
2022-08-10T23:05:33.000Z,992.68
2022-08-10T23:10:28.000Z,992.68
2022-08-10T23:15:22.000Z,992.62
2022-08-10T23:20:17.000Z,992.59
2022-08-10T23:25:12.000Z,992.62
2022-08-10T23:30:07.000Z,992.60
2022-08-10T23:35:01.000Z,992.62
2022-08-10T23:39:56.000Z,992.60
2022-08-10T23:44:51.000Z,992.57
2022-08-10T23:49:45.000Z,992.58
2022-08-10T23:54:41.000Z,992.60
2022-08-10T23:59:35.000Z,992.56
